Time;durP1;ratioP1;P1;durP2;ratioP2;P2;SDS_P1;SDS_P2;PMS_P1;PMS_P2;Temp;Humidity;BMP_temperature;BMP_pressure;BME280_temperature;BME280_humidity;BME280_pressure;Samples;Min_cycle;Max_cycle;Signal;HPM_P1;HPM_P2
2021/05/25 00:01:42;;;;;;;10.48;5.12;;;;;;;10.69;80.60;100261.08;1708018;84;21085;-63
2021/05/25 00:04:09;;;;;;;12.10;5.40;;;;;;;10.68;80.59;100263.52;1706822;83;21053;-63
2021/05/25 00:06:35;;;;;;;9.68;4.60;;;;;;;10.61;80.76;100263.45;1702749;84;21113;-62
2021/05/25 00:09:03;;;;;;;8.90;4.72;;;;;;;10.61;80.98;100260.19;1689919;84;21643;-63
2021/05/25 00:11:30;;;;;;;8.10;4.85;;;;;;;10.67;80.87;100261.04;1634037;87;21164;-62
2021/05/25 00:13:56;;;;;;;10.35;5.00;;;;;;;10.71;80.96;100256.72;1675050;85;21696;-62
2021/05/25 00:16:23;;;;;;;8.53;4.85;;;;;;;10.75;80.96;100265.48;1670515;86;21503;-62
2021/05/25 00:18:52;;;;;;;6.60;4.50;;;;;;;10.75;81.06;100261.94;1670188;85;21672;-62
2021/05/25 00:21:19;;;;;;;11.80;4.47;;;;;;;10.71;80.98;100267.08;1672296;85;21665;-62
2021/05/25 00:23:45;;;;;;;8.63;4.33;;;;;;;10.68;80.58;100260.80;1708415;84;21093;-62
2021/05/25 00:26:13;;;;;;;7.72;4.33;;;;;;;10.71;80.56;100264.89;1705066;84;21029;-62
2021/05/25 00:28:41;;;;;;;9.70;4.17;;;;;;;10.73;80.44;100273.64;1688630;84;21136;-62
2021/05/25 00:31:08;;;;;;;7.25;3.90;;;;;;;10.71;80.29;100267.61;1697782;84;21013;-62
2021/05/25 00:33:34;;;;;;;5.60;3.58;;;;;;;10.64;80.51;100265.11;1701209;84;21097;-62
2021/05/25 00:36:01;;;;;;;5.08;3.85;;;;;;;10.62;80.60;100271.91;1704671;84;21092;-62
2021/05/25 00:38:28;;;;;;;;;;;;;;;10.64;80.46;100275.17;1719507;83;21127;-62
2021/05/25 00:40:54;;;;;;;6.37;3.60;;;;;;;10.67;80.52;100270.03;1715684;83;20280;-63
2021/05/25 00:43:22;;;;;;;7.50;4.72;;;;;;;10.61;80.41;100275.16;1656119;86;21100;-62
2021/05/25 00:45:48;;;;;;;;;;;;;;;10.55;80.38;100267.22;1719315;83;21008;-61
2021/05/25 00:48:14;;;;;;;8.45;4.53;;;;;;;10.53;80.38;100264.73;1668428;85;20507;-64
2021/05/25 00:50:41;;;;;;;8.28;5.03;;;;;;;10.48;80.43;100274.23;1701519;83;21013;-63
2021/05/25 00:53:07;;;;;;;8.30;4.80;;;;;;;10.42;80.57;100265.19;1705223;83;21674;-62
2021/05/25 00:55:35;;;;;;;;;;;;;;;10.37;80.72;100265.16;1724505;83;21100;-62
2021/05/25 00:58:07;;;;;;;7.28;4.35;;;;;;;10.30;80.84;100261.81;1698605;83;20174;-62
2021/05/25 01:00:38;;;;;;;6.30;4.55;;;;;;;10.22;81.19;100263.63;1716497;83;20981;-63
2021/05/25 01:03:06;;;;;;;6.72;4.50;;;;;;;10.26;80.95;100252.52;1696721;83;21125;-62
2021/05/25 01:05:32;;;;;;;6.92;4.42;;;;;;;10.27;80.72;100260.95;1632265;86;21053;-62
2021/05/25 01:07:59;;;;;;;7.40;4.00;;;;;;;10.30;80.93;100257.73;1694660;83;21085;-62
2021/05/25 01:10:30;;;;;;;7.37;3.90;;;;;;;10.30;81.12;100259.09;1689284;83;20993;-62
2021/05/25 01:13:01;;;;;;;6.67;4.00;;;;;;;10.25;81.33;100254.13;1707006;83;21650;-62
2021/05/25 01:15:27;;;;;;;5.40;3.50;;;;;;;10.25;81.29;100256.84;1708652;82;21052;-62
2021/05/25 01:17:57;;;;;;;6.60;3.45;;;;;;;10.27;81.36;100259.58;1706483;83;21068;-62
2021/05/25 01:20:28;;;;;;;5.65;3.15;;;;;;;10.30;81.22;100259.63;1700731;83;21008;-62
2021/05/25 01:22:54;;;;;;;7.33;4.08;;;;;;;10.30;80.82;100268.63;1693345;83;21492;-63
2021/05/25 01:25:21;;;;;;;;;;;;;;;10.22;80.79;100266.89;1659111;86;21036;-62
2021/05/25 01:28:00;;;;;;;5.00;3.50;;;;;;;10.10;81.05;100268.36;1642975;86;20169;-62
2021/05/25 01:30:30;;;;;;;6.42;3.70;;;;;;;9.94;81.36;100264.66;1717518;83;20996;-62
2021/05/25 01:32:57;;;;;;;4.97;3.52;;;;;;;9.95;81.40;100265.48;1694131;83;21424;-63
2021/05/25 01:35:24;;;;;;;5.20;3.27;;;;;;;9.99;81.61;100263.34;1691850;85;21587;-63
2021/05/25 01:37:52;;;;;;;5.15;3.25;;;;;;;10.04;81.68;100265.31;1656674;86;21117;-62
2021/05/25 01:40:18;;;;;;;6.35;3.27;;;;;;;10.02;81.62;100257.13;1714915;83;20993;-63
2021/05/25 01:42:45;;;;;;;6.58;3.45;;;;;;;9.92;81.57;100259.17;1688413;83;21650;-62
2021/05/25 01:45:18;;;;;;;5.45;2.72;;;;;;;9.86;81.64;100262.92;1720100;83;21017;-63
2021/05/25 01:47:45;;;;;;;5.20;3.12;;;;;;;9.89;81.92;100258.33;1720876;83;21092;-62
2021/05/25 01:50:14;;;;;;;4.22;2.95;;;;;;;9.92;82.07;100257.28;1707941;83;21049;-62
2021/05/25 01:52:59;;;;;;;7.15;3.02;;;;;;;9.97;82.24;100263.33;1695600;83;21136;-63
2021/05/25 01:55:32;;;;;;;6.53;2.90;;;;;;;10.00;82.37;100263.63;1693953;83;21028;-62
2021/05/25 01:58:08;;;;;;;6.85;2.92;;;;;;;9.95;82.46;100266.84;1721188;83;21615;-63
2021/05/25 02:00:36;;;;;;;4.10;2.43;;;;;;;10.02;82.06;100255.77;1721222;83;21414;-62
2021/05/25 02:03:03;;;;;;;4.45;2.77;;;;;;;10.02;82.06;100255.77;1711357;83;21802;-62
2021/05/25 02:05:31;;;;;;;5.03;3.10;;;;;;;10.07;82.06;100263.43;1721982;83;21025;-63
2021/05/25 02:07:57;;;;;;;6.15;3.08;;;;;;;;;;1719381;83;21096;-63
2021/05/25 02:10:31;;;;;;;6.03;3.15;;;;;;;10.10;82.56;100253.92;1705187;83;21052;-63
2021/05/25 02:13:04;;;;;;;4.65;3.05;;;;;;;10.13;82.36;100255.59;1718350;83;21064;-63
2021/05/25 02:15:30;;;;;;;7.30;3.10;;;;;;;10.22;82.38;100256.83;1710427;83;21017;-63
2021/05/25 02:18:09;;;;;;;5.25;3.42;;;;;;;10.27;82.22;100260.95;1722483;83;21088;-63
2021/05/25 02:20:37;;;;;;;6.37;3.15;;;;;;;10.28;82.30;100263.95;1708390;83;21028;-63
2021/05/25 02:23:03;;;;;;;6.85;3.30;;;;;;;10.24;82.47;100262.83;1650480;86;21711;-62
2021/05/25 02:25:30;;;;;;;6.08;3.08;;;;;;;10.25;82.44;100267.20;1704071;83;21072;-63
2021/05/25 02:27:57;;;;;;;5.65;3.62;;;;;;;10.32;82.25;100272.42;1720670;83;21613;-63
2021/05/25 02:30:23;;;;;;;7.35;3.77;;;;;;;10.36;82.22;100270.84;1696201;83;21025;-62
2021/05/25 02:32:50;;;;;;;6.65;4.10;;;;;;;10.36;82.22;100266.22;1656613;86;21093;-62
2021/05/25 02:35:16;;;;;;;7.50;4.65;;;;;;;10.34;82.43;100271.11;1698455;83;21017;-63
2021/05/25 02:37:42;;;;;;;;;;;;;;;10.37;82.61;100273.85;1650262;86;21120;-63
2021/05/25 02:40:11;;;;;;;7.40;4.22;;;;;;;10.43;82.56;100273.64;1646467;86;20196;-63
2021/05/25 02:42:37;;;;;;;8.05;4.78;;;;;;;10.44;82.74;100279.38;1634826;88;21165;-63
2021/05/25 02:45:05;;;;;;;8.85;5.15;;;;;;;10.48;82.93;100281.04;1685942;84;21564;-63
2021/05/25 02:47:32;;;;;;;8.53;5.55;;;;;;;10.46;83.28;100280.45;1688982;84;21636;-62
2021/05/25 02:50:06;;;;;;;6.75;4.33;;;;;;;10.49;83.43;100281.30;1685873;84;21049;-62
2021/05/25 02:52:28;;;;;;;9.18;4.97;;;;;;;10.59;83.35;100283.31;1684623;84;21949;-62
2021/05/25 02:54:54;;;;;;;7.75;4.70;;;;;;;10.66;83.23;100283.39;1697795;84;21076;-62
2021/05/25 02:57:20;;;;;;;6.58;5.05;;;;;;;10.73;83.07;100279.08;1700097;83;21635;-62
2021/05/25 02:59:47;;;;;;;6.78;4.53;;;;;;;10.73;83.11;100285.36;1699042;84;21038;-62
2021/05/25 03:02:13;;;;;;;9.65;4.72;;;;;;;10.80;83.08;100285.96;1635582;87;21726;-62
2021/05/25 03:04:39;;;;;;;9.43;4.35;;;;;;;10.97;82.98;100281.19;1669322;86;21380;-62
2021/05/25 03:07:06;;;;;;;6.12;4.42;;;;;;;11.23;82.84;100284.09;1618489;86;21726;-63
2021/05/25 03:09:32;;;;;;;8.78;4.72;;;;;;;11.47;82.47;100290.24;1647127;86;21105;-62
2021/05/25 03:11:58;;;;;;;6.80;4.40;;;;;;;11.66;81.84;100285.67;1661323;86;21116;-62
2021/05/25 03:14:26;;;;;;;5.97;4.08;;;;;;;11.90;81.39;100292.39;1699932;84;21117;-62
2021/05/25 03:16:52;;;;;;;6.78;4.35;;;;;;;12.25;80.52;100291.67;1634610;88;21112;-62
2021/05/25 03:19:18;;;;;;;7.05;4.15;;;;;;;12.55;79.44;100292.27;1701423;84;21443;-62
2021/05/25 03:21:45;;;;;;;7.28;4.28;;;;;;;12.82;78.17;100299.11;1692915;84;21085;-63
2021/05/25 03:24:12;;;;;;;6.08;3.95;;;;;;;13.04;76.73;100296.11;1691921;84;21085;-62
2021/05/25 03:26:38;;;;;;;9.10;4.17;;;;;;;13.25;75.06;100296.97;1684040;84;21133;-61
2021/05/25 03:29:05;;;;;;;7.80;4.22;;;;;;;13.48;74.59;100295.53;1702101;84;21656;-61
2021/05/25 03:31:31;;;;;;;5.50;3.90;;;;;;;13.72;73.71;100300.66;1703453;84;21097;-60
2021/05/25 03:33:58;;;;;;;6.10;4.22;;;;;;;13.89;72.83;100297.86;1699305;84;21583;-61
2021/05/25 03:36:24;;;;;;;7.15;4.03;;;;;;;14.01;72.10;100298.09;1692995;84;21081;-61
2021/05/25 03:38:51;;;;;;;6.62;4.15;;;;;;;14.08;71.32;100296.69;1705110;81;21598;-63
2021/05/25 03:41:17;;;;;;;6.30;4.15;;;;;;;14.16;70.96;100295.28;1716462;83;21012;-63
2021/05/25 03:43:44;;;;;;;6.12;3.75;;;;;;;14.32;70.16;100294.91;1719259;83;21116;-64
2021/05/25 03:46:10;;;;;;;6.28;3.95;;;;;;;14.56;69.86;100296.42;1693896;83;21058;-63
2021/05/25 03:48:37;;;;;;;5.75;3.62;;;;;;;14.76;69.61;100299.05;1692452;83;21065;-64
2021/05/25 03:51:04;;;;;;;8.58;3.80;;;;;;;14.99;68.42;100296.65;1675571;83;21009;-61
2021/05/25 03:53:31;;;;;;;7.37;3.77;;;;;;;15.20;67.53;100296.73;1689496;83;21132;-62
2021/05/25 03:56:17;;;;;;;6.45;3.15;;;;;;;15.37;66.94;100295.19;1716319;83;21040;-63
2021/05/25 04:01:23;;;;;;;5.10;3.10;;;;;;;15.60;65.30;100296.36;1721854;83;21082;-63
2021/05/25 04:03:51;;;;;;;4.33;3.00;;;;;;;15.72;65.32;100291.84;1707972;83;21064;-63
2021/05/25 04:06:18;;;;;;;5.47;3.20;;;;;;;15.98;66.13;100291.00;1699308;83;21057;-64
2021/05/25 04:08:46;;;;;;;5.70;3.00;;;;;;;16.35;63.13;100282.78;1722249;83;21111;-64
2021/05/25 04:11:13;;;;;;;5.42;2.95;;;;;;;16.53;62.54;100283.34;1722450;83;21044;-63
2021/05/25 04:13:40;;;;;;;7.60;3.33;;;;;;;16.59;61.63;100287.67;1719943;83;21104;-64
2021/05/25 04:16:13;;;;;;;6.78;3.22;;;;;;;16.69;62.03;100279.82;1722168;82;21045;-65
2021/05/25 04:18:41;;;;;;;6.37;3.12;;;;;;;16.80;60.38;100282.67;1722327;83;21060;-63
2021/05/25 04:21:09;;;;;;;5.78;3.08;;;;;;;16.84;60.70;100290.03;1722373;82;21541;-64
2021/05/25 04:23:36;;;;;;;5.97;3.27;;;;;;;17.02;60.58;100282.04;1717396;83;21520;-64
2021/05/25 04:26:02;;;;;;;4.55;2.35;;;;;;;17.23;59.50;100280.02;1721684;83;21005;-64
2021/05/25 04:28:29;;;;;;;7.00;3.20;;;;;;;17.40;58.66;100274.73;1721758;83;21654;-64
2021/05/25 04:30:55;;;;;;;;;;;;;;;17.62;58.93;100274.63;1707550;83;21445;-63
2021/05/25 04:33:21;;;;;;;7.15;3.17;;;;;;;17.88;59.20;100280.72;1699819;84;20193;-65
2021/05/25 04:35:48;;;;;;;7.72;2.70;;;;;;;18.15;59.28;100273.53;1696360;84;21041;-65
2021/05/25 04:38:14;;;;;;;5.25;2.62;;;;;;;18.47;55.78;100268.41;1694760;84;21204;-64
2021/05/25 04:40:41;;;;;;;8.15;2.50;;;;;;;18.55;55.73;100255.30;1686083;84;21002;-64
2021/05/25 04:43:08;;;;;;;6.22;2.27;;;;;;;18.67;54.16;100262.46;1676592;84;21105;-64
2021/05/25 04:45:38;;;;;;;4.70;1.67;;;;;;;18.74;55.47;100261.46;1678913;85;21085;-64
2021/05/25 04:48:06;;;;;;;6.55;2.05;;;;;;;18.83;53.41;100253.49;1634700;88;21117;-64
2021/05/25 04:50:33;;;;;;;4.33;1.95;;;;;;;18.87;53.05;100253.68;1693144;84;21610;-64
2021/05/25 04:53:01;;;;;;;3.42;1.42;;;;;;;18.95;52.81;100247.41;1708613;84;21096;-64
2021/05/25 04:55:28;;;;;;;6.58;1.65;;;;;;;18.99;50.57;100254.50;1708511;84;21116;-64
2021/05/25 04:57:55;;;;;;;4.65;1.70;;;;;;;18.97;51.55;100258.94;1708826;84;21717;-64
2021/05/25 05:00:24;;;;;;;5.17;1.65;;;;;;;18.99;51.49;100260.80;1702336;84;21073;-63
2021/05/25 05:02:50;;;;;;;2.50;1.30;;;;;;;18.92;48.44;100244.47;1634625;87;21108;-64
2021/05/25 05:05:17;;;;;;;6.45;1.65;;;;;;;18.90;49.83;100244.77;1678986;84;21595;-64
2021/05/25 05:07:44;;;;;;;4.58;1.27;;;;;;;18.81;49.98;100255.73;1634621;87;21093;-64
2021/05/25 05:10:11;;;;;;;4.20;1.30;;;;;;;18.79;51.20;100249.73;1702314;84;21096;-64
2021/05/25 05:12:38;;;;;;;6.55;1.60;;;;;;;18.80;50.81;100254.69;1665987;84;21069;-65
2021/05/25 05:15:06;;;;;;;4.97;1.30;;;;;;;18.74;50.28;100251.81;1708915;84;21045;-64
2021/05/25 05:17:33;;;;;;;5.05;1.40;;;;;;;18.57;48.86;100248.89;1708834;84;21104;-64
2021/05/25 05:19:59;;;;;;;4.72;1.37;;;;;;;18.37;49.84;100253.74;1692633;84;21077;-63
2021/05/25 05:22:27;;;;;;;4.78;1.25;;;;;;;18.30;51.04;100256.67;1634521;87;21703;-63
2021/05/25 05:24:54;;;;;;;;;;;;;;;18.29;52.08;100259.98;1681262;85;21081;-63
2021/05/25 05:27:20;;;;;;;6.62;1.40;;;;;;;18.33;51.39;100255.48;1681616;84;20183;-64
2021/05/25 05:29:46;;;;;;;7.45;2.15;;;;;;;18.27;50.87;100250.41;1708628;84;21065;-63
2021/05/25 05:32:12;;;;;;;;;;;;;;;18.27;51.62;100238.82;1711260;84;21656;-63
2021/05/25 05:34:39;;;;;;;3.75;1.60;;;;;;;18.24;51.07;100239.45;1708581;83;20176;-63
2021/05/25 05:37:05;;;;;;;4.37;1.45;;;;;;;18.10;52.42;100229.02;1708664;84;21125;-63
2021/05/25 05:39:32;;;;;;;6.40;1.72;;;;;;;18.14;52.86;100233.34;1663108;84;21101;-62
2021/05/25 05:41:58;;;;;;;7.72;1.60;;;;;;;18.15;52.19;100238.53;1708736;84;21445;-63
2021/05/25 05:44:24;;;;;;;6.15;1.52;;;;;;;18.22;52.55;100233.97;1708753;84;21125;-63
2021/05/25 05:46:51;;;;;;;4.05;1.40;;;;;;;18.31;52.46;100226.05;1697715;84;21599;-63
2021/05/25 05:49:18;;;;;;;7.45;1.70;;;;;;;18.40;52.12;100220.59;1634611;88;21152;-63
2021/05/25 05:53:33;;;;;;;3.08;1.30;;;;;;;18.52;51.24;100227.80;1762096;79;22868;-64
2021/05/25 05:56:00;;;;;;;5.10;1.50;;;;;;;18.48;51.68;100231.45;1722077;83;21057;-64
2021/05/25 05:58:26;;;;;;;7.47;1.60;;;;;;;18.58;52.78;100238.13;1639480;85;21210;-64
2021/05/25 06:00:53;;;;;;;7.10;1.50;;;;;;;18.64;50.42;100237.69;1673744;85;21022;-64
2021/05/25 06:03:19;;;;;;;;;;;;;;;18.77;51.66;100238.77;1685883;85;21122;-63
2021/05/25 06:05:46;;;;;;;4.87;1.42;;;;;;;18.98;51.49;100235.74;1676317;85;20175;-65
2021/05/25 06:08:16;;;;;;;4.28;1.27;;;;;;;19.10;51.55;100233.77;1650914;85;21128;-64
2021/05/25 06:10:44;;;;;;;6.53;1.67;;;;;;;19.31;48.62;100230.14;1658555;85;21096;-64
2021/05/25 06:13:10;;;;;;;4.00;1.30;;;;;;;19.44;46.91;100229.02;1677625;85;21108;-64
2021/05/25 06:15:38;;;;;;;4.97;1.32;;;;;;;19.54;47.61;100227.36;1641131;85;21412;-65
2021/05/25 06:18:05;;;;;;;5.22;1.27;;;;;;;19.71;47.85;100230.17;1629909;87;21606;-65
2021/05/25 06:20:32;;;;;;;7.20;1.60;;;;;;;19.90;47.72;100241.77;1625958;87;21068;-64
2021/05/25 06:22:58;;;;;;;5.92;1.52;;;;;;;20.02;46.56;100239.19;1673491;85;21116;-64
2021/05/25 06:25:25;;;;;;;4.83;1.60;;;;;;;20.16;45.87;100234.89;1669303;85;21853;-65
2021/05/25 06:27:52;;;;;;;4.90;1.45;;;;;;;20.25;45.11;100238.50;1677450;85;21148;-64
2021/05/25 06:30:19;;;;;;;5.15;1.52;;;;;;;20.23;44.29;100226.94;1657968;85;21631;-61
2021/05/25 06:32:46;;;;;;;4.40;1.20;;;;;;;20.25;44.64;100223.30;1650252;85;21124;-63
2021/05/25 06:35:13;;;;;;;4.65;1.10;;;;;;;20.28;45.22;100228.20;1658316;85;21539;-65
2021/05/25 06:37:42;;;;;;;4.35;1.45;;;;;;;20.34;45.90;100225.52;1667673;85;21128;-64
2021/05/25 06:40:26;;;;;;;3.42;1.07;;;;;;;20.41;45.42;100238.84;1676537;84;21040;-65
2021/05/25 06:42:52;;;;;;;4.78;1.20;;;;;;;20.43;44.73;100237.41;1664561;85;21108;-65
2021/05/25 06:45:19;;;;;;;3.70;1.27;;;;;;;20.58;46.21;100234.73;1647012;85;21080;-64
2021/05/25 06:47:46;;;;;;;3.83;1.20;;;;;;;20.78;45.92;100236.82;1660596;85;21096;-66
2021/05/25 06:50:14;;;;;;;2.90;1.47;;;;;;;21.05;45.31;100231.47;1677688;85;21044;-65
2021/05/25 06:52:41;;;;;;;3.27;1.15;;;;;;;21.23;42.72;100227.55;1643408;86;21147;-64
2021/05/25 06:55:09;;;;;;;5.30;1.15;;;;;;;21.29;42.70;100220.70;1626014;86;21009;-64
2021/05/25 06:57:36;;;;;;;4.53;1.30;;;;;;;21.44;44.27;100219.32;1625610;86;21128;-63
2021/05/25 07:00:05;;;;;;;5.47;1.05;;;;;;;21.44;43.01;100211.83;1619871;87;21048;-64
2021/05/25 07:02:31;;;;;;;5.05;0.98;;;;;;;21.47;42.32;100213.93;1701220;83;21076;-64
2021/05/25 07:04:57;;;;;;;3.67;1.27;;;;;;;21.63;42.59;100221.12;1712856;82;21037;-64
2021/05/25 07:07:24;;;;;;;3.05;1.00;;;;;;;21.78;41.46;100216.41;1703731;83;21106;-64
2021/05/25 07:09:51;;;;;;;4.65;1.12;;;;;;;21.83;42.29;100207.31;1685085;83;21029;-62
2021/05/25 07:12:17;;;;;;;4.22;1.37;;;;;;;21.97;39.77;100207.09;1697405;84;21133;-60
2021/05/25 07:14:45;;;;;;;4.75;1.30;;;;;;;22.10;40.90;100210.20;1668676;85;21037;-61
2021/05/25 07:17:13;;;;;;;4.05;1.00;;;;;;;22.26;40.77;100209.82;1693393;84;21057;-62
2021/05/25 07:19:39;;;;;;;3.58;0.95;;;;;;;22.31;40.25;100208.81;1675177;85;21048;-62
2021/05/25 07:22:06;;;;;;;2.90;0.78;;;;;;;22.28;41.30;100208.90;1701189;84;21093;-61
2021/05/25 07:24:32;;;;;;;2.83;0.80;;;;;;;22.30;39.87;100196.91;1691571;84;21017;-61
2021/05/25 07:26:59;;;;;;;4.12;0.78;;;;;;;22.21;38.70;100200.30;1654078;85;21092;-61
2021/05/25 07:29:25;;;;;;;3.22;0.75;;;;;;;22.15;39.45;100188.38;1667596;86;21937;-61
2021/05/25 07:31:52;;;;;;;1.80;0.50;;;;;;;22.19;39.14;100192.91;1642485;87;21119;-61
2021/05/25 07:34:18;;;;;;;1.55;0.60;;;;;;;21.98;37.42;100187.93;1637441;87;21532;-62
2021/05/25 07:36:46;;;;;;;4.87;0.82;;;;;;;21.95;39.43;100190.56;1701536;84;21136;-61
2021/05/25 07:39:13;;;;;;;1.85;0.47;;;;;;;22.01;39.01;100182.28;1671436;84;21027;-61
2021/05/25 07:41:40;;;;;;;10.15;0.78;;;;;;;22.15;39.17;100183.64;1660569;84;21097;-61
2021/05/25 07:44:06;;;;;;;3.98;0.90;;;;;;;22.31;38.54;100184.67;1669959;84;21033;-61
2021/05/25 07:46:33;;;;;;;3.33;0.50;;;;;;;22.37;38.04;100181.11;1685356;83;21168;-63
2021/05/25 07:49:00;;;;;;;4.78;0.90;;;;;;;22.44;37.45;100169.45;1698182;84;21028;-63
2021/05/25 07:51:27;;;;;;;3.40;0.40;;;;;;;22.47;37.95;100180.69;1696280;83;21499;-61
2021/05/25 07:53:53;;;;;;;2.12;0.80;;;;;;;22.48;37.57;100174.56;1683291;84;21075;-61
2021/05/25 07:56:19;;;;;;;3.47;0.72;;;;;;;22.44;37.13;100170.84;1684495;83;21017;-61
2021/05/25 07:58:46;;;;;;;1.70;0.65;;;;;;;22.27;38.10;100157.38;1713326;83;21177;-63
2021/05/25 08:01:12;;;;;;;2.20;0.60;;;;;;;22.31;38.61;100152.78;1712281;83;21008;-61
2021/05/25 08:03:38;;;;;;;1.75;0.53;;;;;;;22.33;37.90;100155.20;1708088;83;21105;-62
2021/05/25 08:06:05;;;;;;;1.65;0.55;;;;;;;22.37;38.21;100151.17;1673425;85;21033;-61
2021/05/25 08:08:31;;;;;;;4.28;0.60;;;;;;;22.27;38.97;100155.17;1699896;83;21029;-61
2021/05/25 08:10:59;;;;;;;4.33;0.98;;;;;;;22.13;37.69;100168.50;1704871;83;21016;-62
2021/05/25 08:13:26;;;;;;;3.47;1.37;;;;;;;22.01;37.93;100165.65;1708327;83;21635;-61
2021/05/25 08:15:55;;;;;;;3.55;0.75;;;;;;;22.00;39.88;100171.76;1698926;82;21509;-61
2021/05/25 08:18:48;;;;;;;4.92;0.50;;;;;;;22.08;38.35;100168.12;1699273;82;21134;-61
2021/05/25 08:21:09;;;;;;;2.47;0.70;;;;;;;22.15;41.14;100166.19;1695022;83;21010;-61
2021/05/25 08:23:35;;;;;;;2.20;0.80;;;;;;;22.23;40.37;100169.48;1709410;83;21100;-61
2021/05/25 08:26:04;;;;;;;1.25;0.70;;;;;;;22.44;39.02;100166.69;1712475;83;21036;-61
2021/05/25 08:28:30;;;;;;;2.75;1.22;;;;;;;22.41;38.58;100168.19;1689780;84;21155;-62
2021/05/25 08:30:57;;;;;;;3.67;0.60;;;;;;;22.36;39.14;100155.90;1653617;86;21062;-64
2021/05/25 08:33:24;;;;;;;2.83;0.70;;;;;;;22.41;38.74;100154.31;1676643;84;21639;-62
2021/05/25 08:35:50;;;;;;;1.62;0.50;;;;;;;22.59;40.50;100159.94;1684387;83;21040;-63
2021/05/25 08:38:22;;;;;;;2.80;0.78;;;;;;;22.81;39.59;100152.62;1691533;84;21099;-64
2021/05/25 08:40:53;;;;;;;1.15;0.50;;;;;;;22.90;39.84;100151.14;1694215;84;21044;-64
2021/05/25 08:43:22;;;;;;;2.67;0.50;;;;;;;23.05;40.39;100156.05;1706303;84;21093;-63
2021/05/25 08:45:48;;;;;;;2.77;0.72;;;;;;;23.18;37.56;100145.17;1713619;84;21025;-64
2021/05/25 08:48:15;;;;;;;1.85;0.50;;;;;;;23.19;38.48;100152.94;1675963;83;21106;-63
2021/05/25 08:50:41;;;;;;;1.57;0.50;;;;;;;22.99;38.19;100152.45;1649221;85;21574;-63
2021/05/25 08:53:07;;;;;;;2.72;0.60;;;;;;;22.95;38.34;100157.06;1686313;83;21085;-62
2021/05/25 08:55:35;;;;;;;1.50;0.60;;;;;;;22.94;39.33;100155.44;1694369;84;21045;-62
2021/05/25 08:58:04;;;;;;;2.55;0.90;;;;;;;22.98;37.31;100149.43;1708820;84;21061;-63
2021/05/25 09:00:33;;;;;;;1.02;0.50;;;;;;;23.05;39.00;100153.84;1706498;84;21030;-62
2021/05/25 09:02:59;;;;;;;2.15;0.98;;;;;;;22.95;37.54;100151.52;1680828;84;21120;-65
2021/05/25 09:05:26;;;;;;;3.62;0.50;;;;;;;22.80;37.62;100137.14;1650874;86;21057;-63
2021/05/25 09:07:58;;;;;;;1.02;0.40;;;;;;;22.74;37.10;100146.03;1655137;86;21121;-62
2021/05/25 09:10:41;;;;;;;1.45;0.50;;;;;;;22.70;39.28;100138.97;1674710;86;21029;-63
2021/05/25 09:13:23;;;;;;;3.58;0.30;;;;;;;22.78;36.46;100130.28;1673858;85;21175;-63
2021/05/25 09:15:55;;;;;;;0.95;0.30;;;;;;;22.71;36.65;100139.18;1651312;86;22007;-62
2021/05/25 09:18:25;;;;;;;0.60;0.40;;;;;;;22.62;36.81;100133.47;1646169;86;21085;-63
2021/05/25 09:21:01;;;;;;;1.30;0.50;;;;;;;22.69;37.38;100140.11;1631814;86;21066;-63
2021/05/25 09:23:39;;;;;;;0.83;0.33;;;;;;;22.81;35.49;100135.18;1670036;85;21105;-62
2021/05/25 09:26:14;;;;;;;1.62;0.30;;;;;;;22.91;35.29;100124.20;1617304;86;21087;-63
2021/05/25 09:29:02;;;;;;;1.40;0.42;;;;;;;23.02;36.17;100113.70;1669654;84;21385;-62
2021/05/25 09:31:47;;;;;;;1.02;0.40;;;;;;;23.12;35.04;100117.41;1680106;84;21073;-62
2021/05/25 09:34:20;;;;;;;0.75;0.30;;;;;;;23.12;37.31;100116.59;1694470;84;21096;-63
2021/05/25 09:37:06;;;;;;;0.70;0.33;;;;;;;23.27;36.80;100115.34;1703653;84;21069;-63
2021/05/25 09:39:42;;;;;;;0.80;0.30;;;;;;;23.35;37.18;100119.13;1701241;84;21048;-63
2021/05/25 09:42:10;;;;;;;0.62;0.20;;;;;;;23.36;35.36;100115.78;1702192;84;21033;-62
2021/05/25 09:44:37;;;;;;;1.07;0.20;;;;;;;23.28;35.20;100123.06;1703673;84;21580;-63
2021/05/25 09:47:05;;;;;;;1.85;0.30;;;;;;;23.19;34.56;100114.87;1679030;84;21061;-65
2021/05/25 09:49:32;;;;;;;2.70;0.42;;;;;;;23.25;36.99;100107.91;1681539;84;21054;-62
2021/05/25 09:52:07;;;;;;;2.92;0.30;;;;;;;23.35;36.17;100097.52;1708645;84;21100;-63
2021/05/25 09:54:34;;;;;;;1.80;0.40;;;;;;;23.48;35.95;100096.38;1707501;83;21085;-63
2021/05/25 09:57:06;;;;;;;1.98;0.40;;;;;;;23.45;37.58;100105.41;1708577;84;21097;-63
2021/05/25 09:59:35;;;;;;;1.40;0.50;;;;;;;23.43;36.02;100106.31;1708561;84;21607;-62
2021/05/25 10:02:21;;;;;;;0.78;0.30;;;;;;;23.43;36.28;100116.04;1685051;84;21136;-62
2021/05/25 10:04:59;;;;;;;1.10;0.40;;;;;;;23.40;36.78;100110.58;1647632;86;21097;-63
2021/05/25 10:07:26;;;;;;;0.80;0.30;;;;;;;23.33;34.51;100104.80;1666559;84;21136;-62
2021/05/25 10:09:54;;;;;;;3.37;0.40;;;;;;;23.24;35.53;100103.51;1688832;84;20982;-62
2021/05/25 10:12:26;;;;;;;2.95;0.60;;;;;;;23.11;36.66;100099.12;1688954;84;21104;-62
2021/05/25 10:14:55;;;;;;;1.57;0.40;;;;;;;23.04;38.49;100105.01;1708616;84;21096;-62
2021/05/25 10:20:08;;;;;;;0.93;0.35;;;;;;;23.16;36.86;100091.14;1707765;83;21033;-63
2021/05/25 10:22:35;;;;;;;2.65;0.40;;;;;;;23.28;39.19;100089.16;1661940;84;21611;-60
2021/05/25 10:25:04;;;;;;;1.45;0.40;;;;;;;23.43;36.22;100097.98;1696576;84;21029;-63
2021/05/25 10:27:31;;;;;;;1.98;0.20;;;;;;;23.51;35.43;100089.53;1680333;84;21495;-61
2021/05/25 10:29:58;;;;;;;2.33;0.55;;;;;;;23.59;37.05;100090.00;1670787;86;21021;-62
2021/05/25 10:32:25;;;;;;;1.32;0.20;;;;;;;23.58;35.61;100078.64;1692028;84;21077;-62
2021/05/25 10:34:54;;;;;;;0.85;0.40;;;;;;;23.53;34.13;100081.64;1708469;84;21057;-61
2021/05/25 10:37:21;;;;;;;0.60;0.30;;;;;;;23.53;35.96;100083.61;1685348;84;21588;-61
2021/05/25 10:39:55;;;;;;;3.80;0.47;;;;;;;23.52;36.66;100077.27;1706547;84;21048;-61
2021/05/25 10:42:28;;;;;;;0.90;0.40;;;;;;;23.58;37.57;100082.00;1708383;83;21081;-62
2021/05/25 10:45:12;;;;;;;3.70;0.40;;;;;;;23.66;36.38;100070.77;1708408;84;21068;-62
2021/05/25 10:47:50;;;;;;;2.65;0.40;;;;;;;23.46;37.04;100069.50;1700823;84;21080;-62
2021/05/25 10:53:00;;;;;;;0.80;0.40;;;;;;;23.01;36.36;100058.50;1649030;86;21113;-64
2021/05/25 10:55:36;;;;;;;3.08;0.60;;;;;;;22.85;37.77;100060.36;1640619;87;21008;-64
2021/05/25 10:58:31;;;;;;;5.53;0.35;;;;;;;22.93;38.96;100053.87;1657001;86;21638;-64
2021/05/25 11:01:01;;;;;;;1.10;0.40;;;;;;;23.10;39.26;100050.28;1631105;85;21068;-63
2021/05/25 11:03:28;;;;;;;1.22;0.40;;;;;;;23.23;37.70;100056.09;1646444;85;21101;-61
2021/05/25 11:06:06;;;;;;;1.12;0.40;;;;;;;23.31;39.98;100045.41;1676377;85;21028;-64
2021/05/25 11:08:37;;;;;;;2.75;0.40;;;;;;;23.43;39.41;100044.63;1666838;85;21084;-63
2021/05/25 11:11:12;;;;;;;1.22;0.30;;;;;;;23.47;37.80;100049.71;1638598;86;21040;-65
2021/05/25 11:13:43;;;;;;;2.62;0.50;;;;;;;23.39;35.60;100043.67;1661164;85;21708;-62
2021/05/25 11:16:22;;;;;;;1.30;0.33;;;;;;;23.31;38.30;100046.02;1651507;85;21044;-62
2021/05/25 11:18:59;;;;;;;3.92;0.35;;;;;;;23.30;39.39;100045.78;1683630;85;21079;-63
2021/05/25 11:24:37;;;;;;;2.22;0.30;;;;;;;23.40;38.73;100037.53;1664071;85;21048;-61
2021/05/25 11:27:16;;;;;;;1.42;0.40;;;;;;;23.55;39.75;100029.91;1640038;86;21084;-61
2021/05/25 11:29:57;;;;;;;4.83;0.37;;;;;;;23.54;37.23;100036.04;1653506;85;21059;-62
2021/05/25 11:32:27;;;;;;;2.02;0.30;;;;;;;23.34;38.40;100025.05;1659931;86;21165;-61
2021/05/25 11:35:09;;;;;;;3.17;0.40;;;;;;;23.12;38.54;100016.05;1663422;85;21636;-62
2021/05/25 11:37:39;;;;;;;1.22;0.40;;;;;;;23.05;37.90;100013.63;1672990;85;21146;-62
2021/05/25 11:40:09;;;;;;;1.40;0.30;;;;;;;22.95;39.52;100021.03;1689186;85;21086;-61
2021/05/25 11:42:36;;;;;;;1.77;0.30;;;;;;;22.93;40.10;100020.55;1689265;85;21106;-61
2021/05/25 11:45:02;;;;;;;3.12;0.45;;;;;;;22.99;39.69;100009.47;1689508;84;21083;-61
2021/05/25 11:47:29;;;;;;;2.92;0.40;;;;;;;23.08;40.10;100016.52;1689726;85;21071;-61
2021/05/25 11:49:55;;;;;;;1.52;0.30;;;;;;;23.27;40.00;100023.69;1689624;85;21090;-62